sensor_id;sensor_type;location;lat;lon;timestamp;temperature;humidity
24384;DHT22;12504;52.870;8.798;2022-12-16T00:01:56;-3.40;99.90
24384;DHT22;12504;52.870;8.798;2022-12-16T00:04:23;-3.60;99.90
24384;DHT22;12504;52.870;8.798;2022-12-16T00:06:48;-3.70;99.90
24384;DHT22;12504;52.870;8.798;2022-12-16T00:09:14;-3.80;99.90
24384;DHT22;12504;52.870;8.798;2022-12-16T00:11:40;-3.90;99.90
24384;DHT22;12504;52.870;8.798;2022-12-16T00:14:05;-3.90;99.90
24384;DHT22;12504;52.870;8.798;2022-12-16T00:16:31;-3.90;99.90
24384;DHT22;12504;52.870;8.798;2022-12-16T00:18:57;-4.00;99.90
24384;DHT22;12504;52.870;8.798;2022-12-16T00:21:23;-4.10;99.90
24384;DHT22;12504;52.870;8.798;2022-12-16T00:23:53;-4.10;99.90
24384;DHT22;12504;52.870;8.798;2022-12-16T00:26:19;-4.10;99.90
24384;DHT22;12504;52.870;8.798;2022-12-16T00:28:45;-4.10;99.90
24384;DHT22;12504;52.870;8.798;2022-12-16T00:31:11;-4.10;99.90
24384;DHT22;12504;52.870;8.798;2022-12-16T00:33:37;-4.10;99.90
24384;DHT22;12504;52.870;8.798;2022-12-16T00:36:03;-4.10;99.90
24384;DHT22;12504;52.870;8.798;2022-12-16T00:38:29;-4.10;99.90
24384;DHT22;12504;52.870;8.798;2022-12-16T00:40:55;-4.10;99.90
24384;DHT22;12504;52.870;8.798;2022-12-16T00:43:21;-4.20;99.90
24384;DHT22;12504;52.870;8.798;2022-12-16T00:45:47;-4.30;99.90
24384;DHT22;12504;52.870;8.798;2022-12-16T00:48:13;-4.30;99.90
24384;DHT22;12504;52.870;8.798;2022-12-16T00:50:40;-4.40;99.90
24384;DHT22;12504;52.870;8.798;2022-12-16T00:53:05;-4.40;99.90
24384;DHT22;12504;52.870;8.798;2022-12-16T00:55:31;-4.40;99.90
24384;DHT22;12504;52.870;8.798;2022-12-16T00:57:57;-4.50;99.90
24384;DHT22;12504;52.870;8.798;2022-12-16T01:00:23;-4.50;99.90
24384;DHT22;12504;52.870;8.798;2022-12-16T01:02:50;-4.50;99.90
24384;DHT22;12504;52.870;8.798;2022-12-16T01:05:19;-4.50;99.90
24384;DHT22;12504;52.870;8.798;2022-12-16T01:07:46;-4.60;99.90
24384;DHT22;12504;52.870;8.798;2022-12-16T01:10:12;-4.70;99.90
24384;DHT22;12504;52.870;8.798;2022-12-16T01:12:38;-4.80;99.90
24384;DHT22;12504;52.870;8.798;2022-12-16T01:15:06;-4.80;99.90
24384;DHT22;12504;52.870;8.798;2022-12-16T01:17:33;-4.90;99.90
24384;DHT22;12504;52.870;8.798;2022-12-16T01:19:59;-5.00;99.90
24384;DHT22;12504;52.870;8.798;2022-12-16T01:22:25;-5.00;99.90
24384;DHT22;12504;52.870;8.798;2022-12-16T01:24:53;-5.00;99.90
24384;DHT22;12504;52.870;8.798;2022-12-16T01:27:19;-5.00;99.90
24384;DHT22;12504;52.870;8.798;2022-12-16T01:29:45;-5.00;99.90
24384;DHT22;12504;52.870;8.798;2022-12-16T01:32:12;-5.00;99.90
24384;DHT22;12504;52.870;8.798;2022-12-16T01:34:38;-5.00;99.90
24384;DHT22;12504;52.870;8.798;2022-12-16T01:37:03;-5.00;99.90
24384;DHT22;12504;52.870;8.798;2022-12-16T01:39:29;-4.90;99.90
24384;DHT22;12504;52.870;8.798;2022-12-16T01:41:55;-5.00;99.90
24384;DHT22;12504;52.870;8.798;2022-12-16T01:44:25;-5.00;99.90
24384;DHT22;12504;52.870;8.798;2022-12-16T01:47:01;-5.00;99.90
24384;DHT22;12504;52.870;8.798;2022-12-16T01:52:02;-5.20;99.90
24384;DHT22;12504;52.870;8.798;2022-12-16T01:54:35;-5.20;99.90
24384;DHT22;12504;52.870;8.798;2022-12-16T01:57:05;-5.20;99.90
24384;DHT22;12504;52.870;8.798;2022-12-16T01:59:35;-5.30;99.90
24384;DHT22;12504;52.870;8.798;2022-12-16T02:02:01;-5.30;99.90
24384;DHT22;12504;52.870;8.798;2022-12-16T02:04:28;-5.30;99.90
24384;DHT22;12504;52.870;8.798;2022-12-16T02:06:54;-5.30;99.90
24384;DHT22;12504;52.870;8.798;2022-12-16T02:09:20;-5.30;99.90
24384;DHT22;12504;52.870;8.798;2022-12-16T02:36:25;-5.70;99.90
24384;DHT22;12504;52.870;8.798;2022-12-16T02:39:04;-5.70;99.90
24384;DHT22;12504;52.870;8.798;2022-12-16T02:41:53;-5.80;99.90
24384;DHT22;12504;52.870;8.798;2022-12-16T02:44:20;-5.80;99.90
24384;DHT22;12504;52.870;8.798;2022-12-16T02:46:53;-5.90;99.90
24384;DHT22;12504;52.870;8.798;2022-12-16T02:51:48;-5.90;99.90
24384;DHT22;12504;52.870;8.798;2022-12-16T02:54:15;-5.90;99.90
24384;DHT22;12504;52.870;8.798;2022-12-16T02:57:08;-5.90;99.90
24384;DHT22;12504;52.870;8.798;2022-12-16T03:05:38;-6.00;99.90
24384;DHT22;12504;52.870;8.798;2022-12-16T03:08:11;-6.00;99.90
24384;DHT22;12504;52.870;8.798;2022-12-16T03:10:43;-6.00;99.90
24384;DHT22;12504;52.870;8.798;2022-12-16T03:13:10;-5.90;99.90
24384;DHT22;12504;52.870;8.798;2022-12-16T03:15:38;-5.90;99.90
24384;DHT22;12504;52.870;8.798;2022-12-16T03:18:07;-6.00;99.90
24384;DHT22;12504;52.870;8.798;2022-12-16T03:20:42;-5.90;99.90
24384;DHT22;12504;52.870;8.798;2022-12-16T03:23:16;-5.90;99.90
24384;DHT22;12504;52.870;8.798;2022-12-16T03:25:46;-6.00;99.90
24384;DHT22;12504;52.870;8.798;2022-12-16T03:31:06;-6.00;99.90
24384;DHT22;12504;52.870;8.798;2022-12-16T03:36:49;-6.10;99.90
24384;DHT22;12504;52.870;8.798;2022-12-16T03:39:17;-6.10;99.90
24384;DHT22;12504;52.870;8.798;2022-12-16T03:41:46;-6.20;99.90
24384;DHT22;12504;52.870;8.798;2022-12-16T03:44:13;-6.20;99.90
24384;DHT22;12504;52.870;8.798;2022-12-16T03:46:39;-6.10;99.90
24384;DHT22;12504;52.870;8.798;2022-12-16T03:49:05;-6.10;99.90
24384;DHT22;12504;52.870;8.798;2022-12-16T03:51:31;-6.00;99.90
24384;DHT22;12504;52.870;8.798;2022-12-16T03:53:56;-6.10;99.90
24384;DHT22;12504;52.870;8.798;2022-12-16T03:56:22;-6.10;99.90
24384;DHT22;12504;52.870;8.798;2022-12-16T03:58:48;-6.20;99.90
24384;DHT22;12504;52.870;8.798;2022-12-16T04:01:14;-6.30;99.90
24384;DHT22;12504;52.870;8.798;2022-12-16T04:03:40;-6.40;99.90
24384;DHT22;12504;52.870;8.798;2022-12-16T04:06:05;-6.50;99.90
24384;DHT22;12504;52.870;8.798;2022-12-16T04:08:31;-6.50;99.90
24384;DHT22;12504;52.870;8.798;2022-12-16T04:10:57;-6.50;99.90
24384;DHT22;12504;52.870;8.798;2022-12-16T04:13:41;-6.50;99.90
24384;DHT22;12504;52.870;8.798;2022-12-16T04:16:27;-6.50;99.90
24384;DHT22;12504;52.870;8.798;2022-12-16T04:19:23;-6.50;99.90
24384;DHT22;12504;52.870;8.798;2022-12-16T04:22:57;-6.60;99.90
24384;DHT22;12504;52.870;8.798;2022-12-16T04:25:29;-6.70;99.90
24384;DHT22;12504;52.870;8.798;2022-12-16T04:27:56;-6.70;99.90
24384;DHT22;12504;52.870;8.798;2022-12-16T04:30:23;-6.80;99.90
24384;DHT22;12504;52.870;8.798;2022-12-16T04:32:56;-6.80;99.90
24384;DHT22;12504;52.870;8.798;2022-12-16T04:35:41;-6.80;99.90
24384;DHT22;12504;52.870;8.798;2022-12-16T04:38:26;-6.80;99.90
24384;DHT22;12504;52.870;8.798;2022-12-16T04:41:11;-6.80;99.90
24384;DHT22;12504;52.870;8.798;2022-12-16T04:43:55;-6.80;99.90
24384;DHT22;12504;52.870;8.798;2022-12-16T04:46:39;-6.80;99.90
24384;DHT22;12504;52.870;8.798;2022-12-16T04:49:24;-6.80;99.90
24384;DHT22;12504;52.870;8.798;2022-12-16T04:52:09;-6.70;99.90
24384;DHT22;12504;52.870;8.798;2022-12-16T04:54:53;-6.60;99.90
24384;DHT22;12504;52.870;8.798;2022-12-16T04:57:38;-6.60;99.90
24384;DHT22;12504;52.870;8.798;2022-12-16T05:00:23;-6.60;99.90
24384;DHT22;12504;52.870;8.798;2022-12-16T05:03:07;-6.50;99.90
24384;DHT22;12504;52.870;8.798;2022-12-16T05:05:51;-6.40;99.90
24384;DHT22;12504;52.870;8.798;2022-12-16T05:08:36;-6.40;99.90
24384;DHT22;12504;52.870;8.798;2022-12-16T05:11:20;-6.40;99.90
24384;DHT22;12504;52.870;8.798;2022-12-16T05:14:04;-6.30;99.90
24384;DHT22;12504;52.870;8.798;2022-12-16T05:16:49;-6.20;99.90
24384;DHT22;12504;52.870;8.798;2022-12-16T05:19:33;-6.20;99.90
24384;DHT22;12504;52.870;8.798;2022-12-16T05:22:17;-6.20;99.90
24384;DHT22;12504;52.870;8.798;2022-12-16T05:25:02;-6.20;99.90
24384;DHT22;12504;52.870;8.798;2022-12-16T05:27:50;-6.20;99.90
24384;DHT22;12504;52.870;8.798;2022-12-16T05:30:34;-6.10;99.90
24384;DHT22;12504;52.870;8.798;2022-12-16T05:33:18;-6.00;99.90
24384;DHT22;12504;52.870;8.798;2022-12-16T05:36:03;-5.90;99.90
24384;DHT22;12504;52.870;8.798;2022-12-16T05:38:48;-5.90;99.90
24384;DHT22;12504;52.870;8.798;2022-12-16T05:41:32;-6.00;99.90
24384;DHT22;12504;52.870;8.798;2022-12-16T05:44:17;-5.90;99.90
24384;DHT22;12504;52.870;8.798;2022-12-16T05:47:02;-5.90;99.90
24384;DHT22;12504;52.870;8.798;2022-12-16T05:49:46;-5.80;99.90
24384;DHT22;12504;52.870;8.798;2022-12-16T05:52:31;-5.80;99.90
24384;DHT22;12504;52.870;8.798;2022-12-16T05:55:15;-5.80;99.90
24384;DHT22;12504;52.870;8.798;2022-12-16T05:57:59;-5.80;99.90
24384;DHT22;12504;52.870;8.798;2022-12-16T06:00:43;-5.70;99.90
24384;DHT22;12504;52.870;8.798;2022-12-16T06:03:28;-5.70;99.90
24384;DHT22;12504;52.870;8.798;2022-12-16T06:06:14;-5.70;99.90
24384;DHT22;12504;52.870;8.798;2022-12-16T06:08:58;-5.70;99.90
24384;DHT22;12504;52.870;8.798;2022-12-16T06:11:42;-5.70;99.90
24384;DHT22;12504;52.870;8.798;2022-12-16T06:14:43;-5.70;99.90
24384;DHT22;12504;52.870;8.798;2022-12-16T06:17:27;-5.70;99.90
24384;DHT22;12504;52.870;8.798;2022-12-16T06:20:12;-5.70;99.90
24384;DHT22;12504;52.870;8.798;2022-12-16T06:22:56;-5.70;99.90
24384;DHT22;12504;52.870;8.798;2022-12-16T06:25:42;-5.70;99.90
24384;DHT22;12504;52.870;8.798;2022-12-16T06:28:26;-5.70;99.90
24384;DHT22;12504;52.870;8.798;2022-12-16T06:31:11;-5.70;99.90
24384;DHT22;12504;52.870;8.798;2022-12-16T06:33:56;-5.70;99.90
24384;DHT22;12504;52.870;8.798;2022-12-16T06:36:40;-5.70;99.90
24384;DHT22;12504;52.870;8.798;2022-12-16T06:39:24;-5.70;99.90
24384;DHT22;12504;52.870;8.798;2022-12-16T06:42:09;-5.70;99.90
24384;DHT22;12504;52.870;8.798;2022-12-16T06:44:53;-5.60;99.90
24384;DHT22;12504;52.870;8.798;2022-12-16T06:47:39;-5.60;99.90
24384;DHT22;12504;52.870;8.798;2022-12-16T06:50:25;-5.70;99.90
24384;DHT22;12504;52.870;8.798;2022-12-16T06:53:09;-5.70;99.90
24384;DHT22;12504;52.870;8.798;2022-12-16T06:55:54;-5.70;99.90
24384;DHT22;12504;52.870;8.798;2022-12-16T06:58:38;-5.80;99.90
24384;DHT22;12504;52.870;8.798;2022-12-16T07:01:23;-5.80;99.90
24384;DHT22;12504;52.870;8.798;2022-12-16T07:04:07;-5.80;99.90
24384;DHT22;12504;52.870;8.798;2022-12-16T07:06:51;-5.80;99.90
24384;DHT22;12504;52.870;8.798;2022-12-16T07:09:36;-5.70;99.90
24384;DHT22;12504;52.870;8.798;2022-12-16T07:12:20;-5.80;99.90
24384;DHT22;12504;52.870;8.798;2022-12-16T07:15:05;-5.80;99.90
24384;DHT22;12504;52.870;8.798;2022-12-16T07:17:49;-5.80;99.90
24384;DHT22;12504;52.870;8.798;2022-12-16T07:20:33;-5.80;99.90
24384;DHT22;12504;52.870;8.798;2022-12-16T07:23:18;-5.80;99.90
24384;DHT22;12504;52.870;8.798;2022-12-16T07:26:02;-5.70;99.90
24384;DHT22;12504;52.870;8.798;2022-12-16T07:28:47;-5.70;99.90
24384;DHT22;12504;52.870;8.798;2022-12-16T07:31:31;-5.70;99.90
24384;DHT22;12504;52.870;8.798;2022-12-16T07:34:16;-5.70;99.90
24384;DHT22;12504;52.870;8.798;2022-12-16T07:37:00;-5.60;99.90
24384;DHT22;12504;52.870;8.798;2022-12-16T07:39:44;-5.60;99.90
24384;DHT22;12504;52.870;8.798;2022-12-16T07:42:29;-5.70;99.90
24384;DHT22;12504;52.870;8.798;2022-12-16T07:45:13;-5.70;99.90
24384;DHT22;12504;52.870;8.798;2022-12-16T07:47:58;-5.70;99.90
24384;DHT22;12504;52.870;8.798;2022-12-16T07:50:42;-5.60;99.90
24384;DHT22;12504;52.870;8.798;2022-12-16T07:53:27;-5.70;99.90
24384;DHT22;12504;52.870;8.798;2022-12-16T07:56:11;-5.60;99.90
24384;DHT22;12504;52.870;8.798;2022-12-16T07:58:55;-5.60;99.90
24384;DHT22;12504;52.870;8.798;2022-12-16T08:01:40;-5.50;99.90
24384;DHT22;12504;52.870;8.798;2022-12-16T08:04:25;-5.50;99.90
24384;DHT22;12504;52.870;8.798;2022-12-16T08:07:09;-5.50;99.90
24384;DHT22;12504;52.870;8.798;2022-12-16T08:09:54;-5.40;99.90
24384;DHT22;12504;52.870;8.798;2022-12-16T08:12:38;-5.40;99.90
24384;DHT22;12504;52.870;8.798;2022-12-16T08:15:22;-5.40;99.90
24384;DHT22;12504;52.870;8.798;2022-12-16T08:18:07;-5.30;99.90
24384;DHT22;12504;52.870;8.798;2022-12-16T08:20:51;-5.30;99.90
24384;DHT22;12504;52.870;8.798;2022-12-16T08:23:36;-5.10;99.90
24384;DHT22;12504;52.870;8.798;2022-12-16T08:26:20;-5.00;99.90
24384;DHT22;12504;52.870;8.798;2022-12-16T08:29:05;-4.90;99.90
24384;DHT22;12504;52.870;8.798;2022-12-16T08:31:49;-4.80;99.90
24384;DHT22;12504;52.870;8.798;2022-12-16T08:34:34;-4.80;99.90
24384;DHT22;12504;52.870;8.798;2022-12-16T08:37:18;-4.80;99.90
24384;DHT22;12504;52.870;8.798;2022-12-16T08:40:03;-4.80;99.90
24384;DHT22;12504;52.870;8.798;2022-12-16T08:42:47;-4.80;99.90
24384;DHT22;12504;52.870;8.798;2022-12-16T08:45:32;-4.70;99.90
24384;DHT22;12504;52.870;8.798;2022-12-16T08:48:16;-4.50;99.90
24384;DHT22;12504;52.870;8.798;2022-12-16T08:51:02;-4.50;99.90
24384;DHT22;12504;52.870;8.798;2022-12-16T08:53:47;-4.50;99.90
24384;DHT22;12504;52.870;8.798;2022-12-16T08:56:31;-4.50;99.90
24384;DHT22;12504;52.870;8.798;2022-12-16T08:59:16;-4.40;99.90
24384;DHT22;12504;52.870;8.798;2022-12-16T09:02:00;-4.30;99.90
24384;DHT22;12504;52.870;8.798;2022-12-16T09:04:44;-4.20;99.90
24384;DHT22;12504;52.870;8.798;2022-12-16T09:07:28;-4.10;99.90
24384;DHT22;12504;52.870;8.798;2022-12-16T09:10:12;-4.00;99.90
24384;DHT22;12504;52.870;8.798;2022-12-16T09:13:11;-3.90;99.90
24384;DHT22;12504;52.870;8.798;2022-12-16T09:15:57;-3.80;99.90
24384;DHT22;12504;52.870;8.798;2022-12-16T09:18:41;-3.80;99.90
24384;DHT22;12504;52.870;8.798;2022-12-16T09:21:26;-3.80;99.90
24384;DHT22;12504;52.870;8.798;2022-12-16T09:24:11;-3.70;99.90
24384;DHT22;12504;52.870;8.798;2022-12-16T09:26:56;-3.60;99.90
24384;DHT22;12504;52.870;8.798;2022-12-16T09:29:40;-3.50;99.90
24384;DHT22;12504;52.870;8.798;2022-12-16T09:32:25;-3.40;99.90
24384;DHT22;12504;52.870;8.798;2022-12-16T09:35:09;-3.40;99.90
24384;DHT22;12504;52.870;8.798;2022-12-16T09:37:54;-3.40;99.90
24384;DHT22;12504;52.870;8.798;2022-12-16T09:40:40;-3.30;99.90
24384;DHT22;12504;52.870;8.798;2022-12-16T09:43:32;-3.30;99.90
24384;DHT22;12504;52.870;8.798;2022-12-16T09:53:06;-3.40;99.90
24384;DHT22;12504;52.870;8.798;2022-12-16T09:55:53;-3.30;99.90
24384;DHT22;12504;52.870;8.798;2022-12-16T09:58:43;-3.30;99.90
24384;DHT22;12504;52.870;8.798;2022-12-16T10:01:33;-3.20;99.90
24384;DHT22;12504;52.870;8.798;2022-12-16T10:04:20;-3.20;99.90
24384;DHT22;12504;52.870;8.798;2022-12-16T10:07:20;-3.10;99.90
24384;DHT22;12504;52.870;8.798;2022-12-16T10:13:22;-2.90;99.90
24384;DHT22;12504;52.870;8.798;2022-12-16T10:19:31;-2.80;99.90
24384;DHT22;12504;52.870;8.798;2022-12-16T10:28:18;-2.50;99.90
24384;DHT22;12504;52.870;8.798;2022-12-16T10:31:15;-2.50;99.90
24384;DHT22;12504;52.870;8.798;2022-12-16T10:34:00;-2.40;99.90
24384;DHT22;12504;52.870;8.798;2022-12-16T10:36:46;-2.40;99.90
24384;DHT22;12504;52.870;8.798;2022-12-16T10:39:55;-2.40;99.90
24384;DHT22;12504;52.870;8.798;2022-12-16T10:42:49;-2.30;99.90
24384;DHT22;12504;52.870;8.798;2022-12-16T10:45:39;-2.20;99.90
24384;DHT22;12504;52.870;8.798;2022-12-16T10:48:26;-2.10;99.90
24384;DHT22;12504;52.870;8.798;2022-12-16T10:51:14;-2.00;99.90
24384;DHT22;12504;52.870;8.798;2022-12-16T11:00:50;-1.70;99.90
24384;DHT22;12504;52.870;8.798;2022-12-16T11:03:38;-1.60;99.90
24384;DHT22;12504;52.870;8.798;2022-12-16T11:06:35;-1.50;99.90
24384;DHT22;12504;52.870;8.798;2022-12-16T11:09:31;-1.40;99.90
24384;DHT22;12504;52.870;8.798;2022-12-16T11:15:25;-1.10;99.90
24384;DHT22;12504;52.870;8.798;2022-12-16T11:18:18;-1.00;99.90
24384;DHT22;12504;52.870;8.798;2022-12-16T11:21:11;-0.90;99.90
24384;DHT22;12504;52.870;8.798;2022-12-16T11:24:11;-0.90;99.90
24384;DHT22;12504;52.870;8.798;2022-12-16T11:27:13;-0.70;99.90
24384;DHT22;12504;52.870;8.798;2022-12-16T11:30:00;-0.10;99.90
24384;DHT22;12504;52.870;8.798;2022-12-16T11:35:40;2.90;99.90
24384;DHT22;12504;52.870;8.798;2022-12-16T11:38:39;4.10;99.90
24384;DHT22;12504;52.870;8.798;2022-12-16T11:41:29;5.00;99.90
24384;DHT22;12504;52.870;8.798;2022-12-16T11:44:21;6.00;45.60
24384;DHT22;12504;52.870;8.798;2022-12-16T11:50:26;6.00;28.00
24384;DHT22;12504;52.870;8.798;2022-12-16T11:56:36;6.00;1.00
24384;DHT22;12504;52.870;8.798;2022-12-16T11:59:39;6.40;1.00
24384;DHT22;12504;52.870;8.798;2022-12-16T12:05:47;5.20;67.00
24384;DHT22;12504;52.870;8.798;2022-12-16T12:08:42;4.30;83.80
24384;DHT22;12504;52.870;8.798;2022-12-16T12:11:41;3.90;87.30
24384;DHT22;12504;52.870;8.798;2022-12-16T12:14:47;3.50;99.30
24384;DHT22;12504;52.870;8.798;2022-12-16T12:17:43;3.20;99.90
24384;DHT22;12504;52.870;8.798;2022-12-16T12:20:56;2.60;99.90
24384;DHT22;12504;52.870;8.798;2022-12-16T12:26:58;1.90;99.90
24384;DHT22;12504;52.870;8.798;2022-12-16T12:30:18;1.70;99.90
24384;DHT22;12504;52.870;8.798;2022-12-16T12:42:11;1.10;99.90
24384;DHT22;12504;52.870;8.798;2022-12-16T12:48:14;1.20;99.90
24384;DHT22;12504;52.870;8.798;2022-12-16T12:57:17;1.00;99.90
24384;DHT22;12504;52.870;8.798;2022-12-16T13:00:11;0.90;99.90
24384;DHT22;12504;52.870;8.798;2022-12-16T13:05:44;0.90;99.90
24384;DHT22;12504;52.870;8.798;2022-12-16T13:08:41;0.90;99.90
24384;DHT22;12504;52.870;8.798;2022-12-16T13:11:25;0.90;99.90
24384;DHT22;12504;52.870;8.798;2022-12-16T13:17:19;0.80;99.90
24384;DHT22;12504;52.870;8.798;2022-12-16T13:20:50;0.70;99.90
24384;DHT22;12504;52.870;8.798;2022-12-16T13:23:39;0.60;99.90
24384;DHT22;12504;52.870;8.798;2022-12-16T13:26:26;0.50;99.90
24384;DHT22;12504;52.870;8.798;2022-12-16T13:34:45;0.30;99.90
24384;DHT22;12504;52.870;8.798;2022-12-16T13:37:50;0.20;99.90
24384;DHT22;12504;52.870;8.798;2022-12-16T13:40:55;0.20;99.90
24384;DHT22;12504;52.870;8.798;2022-12-16T13:43:54;0.00;99.90
24384;DHT22;12504;52.870;8.798;2022-12-16T13:49:48;-0.20;99.90
24384;DHT22;12504;52.870;8.798;2022-12-16T13:55:55;-0.30;99.90
24384;DHT22;12504;52.870;8.798;2022-12-16T13:58:52;-0.30;99.90
24384;DHT22;12504;52.870;8.798;2022-12-16T14:01:55;-0.30;99.90
24384;DHT22;12504;52.870;8.798;2022-12-16T14:04:45;-0.30;99.90
24384;DHT22;12504;52.870;8.798;2022-12-16T14:07:33;-0.20;99.90
24384;DHT22;12504;52.870;8.798;2022-12-16T14:10:29;-0.20;99.90
24384;DHT22;12504;52.870;8.798;2022-12-16T14:19:33;0.00;99.90
24384;DHT22;12504;52.870;8.798;2022-12-16T14:22:33;0.10;99.90
24384;DHT22;12504;52.870;8.798;2022-12-16T14:25:21;0.00;99.90
24384;DHT22;12504;52.870;8.798;2022-12-16T14:28:32;-0.10;99.90
24384;DHT22;12504;52.870;8.798;2022-12-16T14:34:22;-0.30;99.90
24384;DHT22;12504;52.870;8.798;2022-12-16T14:39:59;-0.80;99.90
24384;DHT22;12504;52.870;8.798;2022-12-16T14:42:46;-0.90;99.90
24384;DHT22;12504;52.870;8.798;2022-12-16T14:45:35;-1.10;99.90
24384;DHT22;12504;52.870;8.798;2022-12-16T14:57:13;-1.60;99.90
24384;DHT22;12504;52.870;8.798;2022-12-16T15:02:53;-1.80;99.90
24384;DHT22;12504;52.870;8.798;2022-12-16T15:05:39;-1.90;99.90
24384;DHT22;12504;52.870;8.798;2022-12-16T15:08:25;-1.90;99.90
24384;DHT22;12504;52.870;8.798;2022-12-16T15:11:12;-2.00;99.90
24384;DHT22;12504;52.870;8.798;2022-12-16T15:13:58;-2.10;99.90
24384;DHT22;12504;52.870;8.798;2022-12-16T15:16:44;-2.30;99.90
24384;DHT22;12504;52.870;8.798;2022-12-16T15:19:35;-2.40;99.90
24384;DHT22;12504;52.870;8.798;2022-12-16T15:22:21;-2.50;99.90
24384;DHT22;12504;52.870;8.798;2022-12-16T15:25:05;-2.50;99.90
24384;DHT22;12504;52.870;8.798;2022-12-16T15:27:55;-2.60;99.90
24384;DHT22;12504;52.870;8.798;2022-12-16T15:30:42;-2.60;99.90
24384;DHT22;12504;52.870;8.798;2022-12-16T15:33:32;-2.60;99.90
24384;DHT22;12504;52.870;8.798;2022-12-16T15:36:26;-2.60;99.90
24384;DHT22;12504;52.870;8.798;2022-12-16T15:39:36;-2.70;99.90
24384;DHT22;12504;52.870;8.798;2022-12-16T15:42:26;-2.70;99.90
24384;DHT22;12504;52.870;8.798;2022-12-16T15:45:23;-2.80;99.90
24384;DHT22;12504;52.870;8.798;2022-12-16T15:48:18;-2.90;99.90
24384;DHT22;12504;52.870;8.798;2022-12-16T15:51:27;-2.90;99.90
24384;DHT22;12504;52.870;8.798;2022-12-16T15:54:18;-2.90;99.90
24384;DHT22;12504;52.870;8.798;2022-12-16T15:57:24;-3.00;99.90
24384;DHT22;12504;52.870;8.798;2022-12-16T16:03:01;-3.30;99.90
24384;DHT22;12504;52.870;8.798;2022-12-16T16:05:46;-3.30;99.90
24384;DHT22;12504;52.870;8.798;2022-12-16T16:08:30;-3.30;99.90
24384;DHT22;12504;52.870;8.798;2022-12-16T16:11:15;-3.30;99.90
24384;DHT22;12504;52.870;8.798;2022-12-16T16:13:59;-3.40;99.90
24384;DHT22;12504;52.870;8.798;2022-12-16T16:16:43;-3.40;99.90
24384;DHT22;12504;52.870;8.798;2022-12-16T16:19:27;-3.40;99.90
24384;DHT22;12504;52.870;8.798;2022-12-16T16:22:14;-3.40;99.90
24384;DHT22;12504;52.870;8.798;2022-12-16T16:25:13;-3.50;99.90
24384;DHT22;12504;52.870;8.798;2022-12-16T16:27:57;-3.60;99.90
24384;DHT22;12504;52.870;8.798;2022-12-16T16:30:41;-3.60;99.90
24384;DHT22;12504;52.870;8.798;2022-12-16T16:33:37;-3.70;99.90
24384;DHT22;12504;52.870;8.798;2022-12-16T16:36:21;-3.80;99.90
24384;DHT22;12504;52.870;8.798;2022-12-16T16:39:07;-4.00;99.90
24384;DHT22;12504;52.870;8.798;2022-12-16T16:41:51;-4.00;99.90
24384;DHT22;12504;52.870;8.798;2022-12-16T16:44:35;-4.10;99.90
24384;DHT22;12504;52.870;8.798;2022-12-16T16:47:27;-4.10;99.90
24384;DHT22;12504;52.870;8.798;2022-12-16T16:50:13;-4.10;99.90
24384;DHT22;12504;52.870;8.798;2022-12-16T16:52:58;-4.20;99.90
24384;DHT22;12504;52.870;8.798;2022-12-16T16:58:29;-4.30;99.90
24384;DHT22;12504;52.870;8.798;2022-12-16T17:01:16;-4.40;99.90
24384;DHT22;12504;52.870;8.798;2022-12-16T17:04:00;-4.40;99.90
24384;DHT22;12504;52.870;8.798;2022-12-16T17:06:44;-4.40;99.90
24384;DHT22;12504;52.870;8.798;2022-12-16T17:09:28;-4.50;99.90
24384;DHT22;12504;52.870;8.798;2022-12-16T17:12:21;-4.60;99.90
24384;DHT22;12504;52.870;8.798;2022-12-16T17:15:16;-4.50;99.90
24384;DHT22;12504;52.870;8.798;2022-12-16T17:18:02;-4.50;99.90
24384;DHT22;12504;52.870;8.798;2022-12-16T17:20:47;-4.60;99.90
24384;DHT22;12504;52.870;8.798;2022-12-16T17:23:31;-4.60;99.90
24384;DHT22;12504;52.870;8.798;2022-12-16T17:26:16;-4.60;99.90
24384;DHT22;12504;52.870;8.798;2022-12-16T17:29:00;-4.60;99.90
24384;DHT22;12504;52.870;8.798;2022-12-16T17:31:44;-4.50;99.90
24384;DHT22;12504;52.870;8.798;2022-12-16T17:34:29;-4.60;99.90
24384;DHT22;12504;52.870;8.798;2022-12-16T17:37:13;-4.70;99.90
24384;DHT22;12504;52.870;8.798;2022-12-16T17:39:57;-4.80;99.90
24384;DHT22;12504;52.870;8.798;2022-12-16T17:42:41;-4.80;99.90
24384;DHT22;12504;52.870;8.798;2022-12-16T17:45:26;-4.80;99.90
24384;DHT22;12504;52.870;8.798;2022-12-16T17:48:10;-4.90;99.90
24384;DHT22;12504;52.870;8.798;2022-12-16T17:50:55;-5.00;99.90
24384;DHT22;12504;52.870;8.798;2022-12-16T17:53:39;-5.00;99.90
24384;DHT22;12504;52.870;8.798;2022-12-16T17:56:24;-5.00;99.90
24384;DHT22;12504;52.870;8.798;2022-12-16T17:59:08;-5.10;99.90
24384;DHT22;12504;52.870;8.798;2022-12-16T18:01:53;-5.10;99.90
24384;DHT22;12504;52.870;8.798;2022-12-16T18:04:37;-5.20;99.90
24384;DHT22;12504;52.870;8.798;2022-12-16T18:07:22;-5.20;99.90
24384;DHT22;12504;52.870;8.798;2022-12-16T18:10:06;-5.30;99.90
24384;DHT22;12504;52.870;8.798;2022-12-16T18:12:58;-5.30;99.90
24384;DHT22;12504;52.870;8.798;2022-12-16T18:15:43;-5.30;99.90
24384;DHT22;12504;52.870;8.798;2022-12-16T18:18:34;-5.40;99.90
24384;DHT22;12504;52.870;8.798;2022-12-16T18:21:18;-5.40;99.90
24384;DHT22;12504;52.870;8.798;2022-12-16T18:24:07;-5.50;99.90
24384;DHT22;12504;52.870;8.798;2022-12-16T18:26:54;-5.50;99.90
24384;DHT22;12504;52.870;8.798;2022-12-16T18:29:39;-5.40;99.90
24384;DHT22;12504;52.870;8.798;2022-12-16T18:32:23;-5.30;99.90
24384;DHT22;12504;52.870;8.798;2022-12-16T18:35:07;-5.20;99.90
24384;DHT22;12504;52.870;8.798;2022-12-16T18:37:52;-5.20;99.90
24384;DHT22;12504;52.870;8.798;2022-12-16T18:40:36;-5.20;99.90
24384;DHT22;12504;52.870;8.798;2022-12-16T18:43:20;-5.40;99.90
24384;DHT22;12504;52.870;8.798;2022-12-16T18:46:07;-5.50;99.90
24384;DHT22;12504;52.870;8.798;2022-12-16T18:48:51;-5.60;99.90
24384;DHT22;12504;52.870;8.798;2022-12-16T18:51:36;-5.70;99.90
24384;DHT22;12504;52.870;8.798;2022-12-16T18:54:20;-5.70;99.90
24384;DHT22;12504;52.870;8.798;2022-12-16T18:57:04;-5.70;99.90
24384;DHT22;12504;52.870;8.798;2022-12-16T18:59:49;-5.80;99.90
24384;DHT22;12504;52.870;8.798;2022-12-16T19:02:34;-5.80;99.90
24384;DHT22;12504;52.870;8.798;2022-12-16T19:05:18;-5.80;99.90
24384;DHT22;12504;52.870;8.798;2022-12-16T19:08:02;-5.80;99.90
24384;DHT22;12504;52.870;8.798;2022-12-16T19:10:46;-5.80;99.90
24384;DHT22;12504;52.870;8.798;2022-12-16T19:13:31;-5.80;99.90
24384;DHT22;12504;52.870;8.798;2022-12-16T19:16:15;-5.70;99.90
24384;DHT22;12504;52.870;8.798;2022-12-16T19:19:00;-5.80;99.90
24384;DHT22;12504;52.870;8.798;2022-12-16T19:21:45;-5.80;99.90
24384;DHT22;12504;52.870;8.798;2022-12-16T19:24:30;-5.90;99.90
24384;DHT22;12504;52.870;8.798;2022-12-16T19:27:14;-5.90;99.90
24384;DHT22;12504;52.870;8.798;2022-12-16T19:29:58;-6.00;99.90
24384;DHT22;12504;52.870;8.798;2022-12-16T19:32:47;-6.00;99.90
24384;DHT22;12504;52.870;8.798;2022-12-16T19:35:32;-6.10;99.90
24384;DHT22;12504;52.870;8.798;2022-12-16T19:38:17;-6.10;99.90
24384;DHT22;12504;52.870;8.798;2022-12-16T19:41:01;-6.10;99.90
24384;DHT22;12504;52.870;8.798;2022-12-16T19:43:46;-6.10;99.90
24384;DHT22;12504;52.870;8.798;2022-12-16T19:46:31;-6.10;99.90